Time;durP1;ratioP1;P1;durP2;ratioP2;P2;SDS_P1;SDS_P2;PMS_P1;PMS_P2;Temp;Humidity;BMP_temperature;BMP_pressure;BME280_temperature;BME280_humidity;BME280_pressure;Samples;Min_cycle;Max_cycle;Signal;HPM_P1;HPM_P2
2022/07/01 00:02:02;;;;;;;4.63;4.22;;;23.30;99.90;;;;;;5067827;28;20029;-93
2022/07/01 00:04:28;;;;;;;4.10;3.70;;;23.30;99.90;;;;;;5065943;28;20426;-93
2022/07/01 00:06:54;;;;;;;4.50;3.75;;;23.40;99.90;;;;;;5075749;28;20120;-92
2022/07/01 00:09:21;;;;;;;5.50;3.85;;;23.40;99.90;;;;;;5075404;28;20047;-94
2022/07/01 00:11:47;;;;;;;5.88;3.58;;;23.50;99.90;;;;;;5063882;28;20032;-93
2022/07/01 00:14:13;;;;;;;3.30;3.00;;;23.50;99.90;;;;;;5071810;28;20045;-94
2022/07/01 00:16:38;;;;;;;4.68;3.95;;;23.50;99.90;;;;;;5071432;28;20043;-94
2022/07/01 00:19:05;;;;;;;6.25;4.20;;;23.60;99.90;;;;;;5071768;28;20394;-94
2022/07/01 00:21:31;;;;;;;4.13;3.70;;;23.60;99.90;;;;;;5073166;28;20035;-93
2022/07/01 00:23:57;;;;;;;4.00;3.60;;;23.60;99.90;;;;;;5074984;28;20111;-93
2022/07/01 00:26:22;;;;;;;3.85;3.25;;;23.70;99.90;;;;;;5075196;28;20079;-94
2022/07/01 00:28:48;;;;;;;4.18;3.50;;;23.70;99.90;;;;;;5063232;28;20044;-94
2022/07/01 00:31:14;;;;;;;8.18;3.13;;;23.70;99.90;;;;;;5072389;28;20029;-93
2022/07/01 00:33:39;;;;;;;5.00;3.50;;;23.70;99.90;;;;;;5060131;28;20025;-94
2022/07/01 00:36:05;;;;;;;4.78;3.42;;;23.70;99.90;;;;;;5058332;28;20533;-93
2022/07/01 00:38:31;;;;;;;6.63;3.70;;;23.70;99.90;;;;;;5070024;28;20028;-94
2022/07/01 00:40:57;;;;;;;4.00;3.33;;;23.60;99.90;;;;;;5073376;28;20035;-94
2022/07/01 00:43:24;;;;;;;3.65;3.28;;;23.60;99.90;;;;;;5064920;28;20224;-93
2022/07/01 00:45:51;;;;;;;3.60;2.90;;;23.60;99.90;;;;;;5062433;28;20099;-94
2022/07/01 00:48:18;;;;;;;6.72;3.20;;;23.50;99.90;;;;;;5067587;28;20032;-94
2022/07/01 00:50:44;;;;;;;7.63;3.20;;;23.50;99.90;;;;;;5069641;28;20025;-94
2022/07/01 00:53:12;;;;;;;4.70;3.00;;;23.50;99.90;;;;;;5065159;28;20488;-94
2022/07/01 00:55:37;;;;;;;5.38;2.88;;;23.40;99.90;;;;;;5072645;28;20036;-92
2022/07/01 00:58:03;;;;;;;3.70;2.85;;;23.40;99.90;;;;;;5071911;28;20024;-95
2022/07/01 01:00:29;;;;;;;10.63;2.92;;;23.30;99.90;;;;;;5062798;28;20365;-93
2022/07/01 01:02:55;;;;;;;5.43;2.97;;;23.20;99.90;;;;;;5067322;28;20017;-94
2022/07/01 01:05:21;;;;;;;3.85;3.38;;;23.20;99.90;;;;;;5062355;28;20037;-94
2022/07/01 01:07:50;;;;;;;7.90;3.20;;;23.10;99.90;;;;;;5071916;28;20029;-93
2022/07/01 01:10:17;;;;;;;7.10;3.00;;;23.00;99.90;;;;;;5062249;28;20040;-93
2022/07/01 01:12:43;;;;;;;10.10;3.47;;;22.90;99.90;;;;;;5066072;28;20021;-95
2022/07/01 01:15:10;;;;;;;7.28;3.80;;;22.90;99.90;;;;;;5071369;28;20088;-94
2022/07/01 01:17:37;;;;;;;3.80;3.17;;;22.80;99.90;;;;;;5070738;28;20186;-94
2022/07/01 01:20:03;;;;;;;8.07;3.47;;;22.70;99.90;;;;;;5056349;28;20036;-94
2022/07/01 01:22:29;;;;;;;7.22;3.30;;;22.60;99.90;;;;;;5064697;28;20029;-93
2022/07/01 01:24:57;;;;;;;8.48;3.53;;;22.40;99.90;;;;;;5067728;28;20027;-94
2022/07/01 01:27:23;;;;;;;6.45;3.45;;;22.30;99.90;;;;;;5063529;28;20037;-93
2022/07/01 01:29:49;;;;;;;4.70;3.00;;;22.10;99.90;;;;;;5061162;28;20036;-93
2022/07/01 01:32:14;;;;;;;4.15;3.00;;;22.00;99.90;;;;;;5071997;28;20044;-93
2022/07/01 01:34:40;;;;;;;7.63;3.63;;;21.90;99.90;;;;;;5064993;28;20043;-93
2022/07/01 01:37:08;;;;;;;4.80;3.47;;;21.80;99.90;;;;;;5055136;28;20029;-93
2022/07/01 01:39:36;;;;;;;4.95;3.33;;;21.70;99.90;;;;;;5069198;28;20028;-93
2022/07/01 01:42:04;;;;;;;6.75;3.80;;;21.70;99.90;;;;;;5061107;28;20031;-93
2022/07/01 01:44:30;;;;;;;7.30;3.38;;;21.60;99.90;;;;;;5068109;28;20024;-92
2022/07/01 01:46:55;;;;;;;4.72;3.25;;;21.60;99.90;;;;;;5061318;28;20044;-94
2022/07/01 01:49:21;;;;;;;4.95;3.28;;;21.50;99.90;;;;;;5069590;28;20344;-93
2022/07/01 01:51:47;;;;;;;5.22;3.85;;;21.50;99.90;;;;;;5057036;28;20645;-93
2022/07/01 01:54:12;;;;;;;5.75;3.53;;;21.50;99.90;;;;;;5056968;28;20043;-93
2022/07/01 01:56:38;;;;;;;6.90;3.10;;;21.40;99.90;;;;;;5067306;28;20032;-93
2022/07/01 01:59:04;;;;;;;3.33;3.00;;;21.40;99.90;;;;;;5061751;28;20025;-93
2022/07/01 02:01:30;;;;;;;7.78;3.38;;;21.40;99.90;;;;;;5067952;28;20484;-92
2022/07/01 02:03:56;;;;;;;6.38;3.47;;;21.30;99.90;;;;;;5062408;28;20399;-93
2022/07/01 02:06:23;;;;;;;4.18;3.13;;;21.30;99.90;;;;;;5059722;28;20025;-93
2022/07/01 02:08:48;;;;;;;7.88;3.05;;;21.20;99.90;;;;;;5074171;28;20021;-95
2022/07/01 02:11:14;;;;;;;4.88;3.33;;;21.10;99.90;;;;;;5059332;28;20071;-93
2022/07/01 02:13:40;;;;;;;5.60;3.53;;;21.10;99.90;;;;;;5054714;28;20029;-93
2022/07/01 02:16:06;;;;;;;6.35;2.78;;;21.00;99.90;;;;;;5065819;28;20026;-91
2022/07/01 02:18:32;;;;;;;3.45;3.08;;;21.00;99.90;;;;;;5060137;28;20436;-93
2022/07/01 02:20:59;;;;;;;5.03;3.53;;;20.90;99.90;;;;;;5059321;28;20037;-91
2022/07/01 02:23:24;;;;;;;9.55;3.83;;;20.80;99.90;;;;;;5071737;28;20024;-91
2022/07/01 02:25:51;;;;;;;5.40;3.10;;;20.70;99.90;;;;;;5070299;28;20098;-94
2022/07/01 02:28:16;;;;;;;6.05;2.92;;;20.60;99.90;;;;;;5055975;28;20040;-93
2022/07/01 02:30:42;;;;;;;3.28;2.90;;;20.60;99.90;;;;;;5062678;28;20020;-92
2022/07/01 02:33:09;;;;;;;8.88;3.83;;;20.50;99.90;;;;;;5055374;28;20084;-94
2022/07/01 02:35:37;;;;;;;3.83;3.00;;;20.40;99.90;;;;;;5070445;28;20381;-93
2022/07/01 02:38:04;;;;;;;7.43;3.08;;;20.30;99.90;;;;;;5066121;28;20694;-92
2022/07/01 02:40:30;;;;;;;5.57;2.90;;;20.30;99.90;;;;;;5054187;28;20094;-91
2022/07/01 02:42:56;;;;;;;4.43;3.30;;;20.20;99.90;;;;;;5064961;28;20487;-93
2022/07/01 02:45:22;;;;;;;5.57;3.70;;;20.20;99.90;;;;;;5060206;28;20052;-93
2022/07/01 02:47:47;;;;;;;8.10;3.00;;;20.20;99.90;;;;;;5059287;28;20016;-92
2022/07/01 02:50:14;;;;;;;4.38;3.40;;;20.10;99.90;;;;;;5066067;28;20033;-92
2022/07/01 02:52:41;;;;;;;5.93;3.10;;;20.10;99.90;;;;;;5056334;28;20026;-93
2022/07/01 02:55:09;;;;;;;4.35;2.88;;;20.00;99.90;;;;;;5063526;28;20017;-93
2022/07/01 02:57:34;;;;;;;3.60;3.17;;;19.90;99.90;;;;;;5060895;28;20040;-92
2022/07/01 03:00:01;;;;;;;4.90;3.08;;;19.90;99.90;;;;;;5069123;28;20052;-93
2022/07/01 03:02:26;;;;;;;6.60;3.20;;;19.90;99.90;;;;;;5069609;28;20088;-93
2022/07/01 03:04:53;;;;;;;2.92;2.63;;;19.80;99.90;;;;;;5066276;28;20068;-91
2022/07/01 03:07:20;;;;;;;3.63;2.55;;;19.80;99.90;;;;;;5067738;28;20519;-93
2022/07/01 03:09:47;;;;;;;4.07;3.00;;;19.70;99.90;;;;;;5071084;28;20036;-92
2022/07/01 03:12:25;;;;;;;3.95;2.85;;;19.70;99.90;;;;;;5069653;28;20047;-91
2022/07/01 03:14:51;;;;;;;4.70;2.78;;;19.60;99.90;;;;;;5060059;28;20041;-94
2022/07/01 03:17:17;;;;;;;7.07;2.75;;;19.70;99.90;;;;;;5064491;28;20043;-94
2022/07/01 03:19:43;;;;;;;4.55;2.35;;;19.60;99.90;;;;;;5056568;28;20114;-92
2022/07/01 03:22:09;;;;;;;5.15;2.45;;;19.60;99.90;;;;;;5057918;28;20037;-92
2022/07/01 03:24:35;;;;;;;2.45;2.22;;;19.50;99.90;;;;;;5072507;28;20032;-94
2022/07/01 03:27:01;;;;;;;3.88;2.28;;;19.50;99.90;;;;;;5061318;28;20391;-93
2022/07/01 03:29:27;;;;;;;7.25;2.50;;;19.50;99.90;;;;;;5063652;28;20051;-92
2022/07/01 03:31:52;;;;;;;2.72;2.28;;;19.50;99.90;;;;;;5071283;28;20088;-93
2022/07/01 03:34:18;;;;;;;2.97;2.40;;;19.50;99.90;;;;;;5071564;28;20481;-93
2022/07/01 03:36:44;;;;;;;3.60;2.25;;;19.50;99.90;;;;;;5060515;28;20531;-92
2022/07/01 03:39:09;;;;;;;2.38;2.15;;;19.50;99.90;;;;;;5070472;28;20025;-93
2022/07/01 03:41:35;;;;;;;3.97;2.33;;;19.40;99.90;;;;;;5061059;28;20113;-92
2022/07/01 03:44:01;;;;;;;3.65;2.63;;;19.40;99.90;;;;;;5070008;28;20403;-93
2022/07/01 03:46:30;;;;;;;3.50;2.15;;;19.30;99.90;;;;;;5062765;28;20407;-91
2022/07/01 03:48:56;;;;;;;2.38;2.17;;;19.30;99.90;;;;;;5071860;28;20036;-92
2022/07/01 03:51:21;;;;;;;4.32;2.33;;;19.30;99.90;;;;;;5060239;28;20392;-92
2022/07/01 03:56:31;;;;;;;2.30;2.10;;;19.30;99.90;;;;;;5065916;28;20064;-92
2022/07/01 03:58:56;;;;;;;4.53;2.30;;;19.20;99.90;;;;;;5073121;28;20492;-91
2022/07/01 04:01:22;;;;;;;2.92;2.08;;;19.10;99.90;;;;;;5064946;28;20070;-90
2022/07/01 04:03:48;;;;;;;2.45;2.25;;;19.10;99.90;;;;;;5070092;28;20020;-91
2022/07/01 04:06:14;;;;;;;3.00;2.30;;;19.10;99.90;;;;;;5069295;28;20487;-92
2022/07/01 04:08:40;;;;;;;3.60;2.30;;;19.10;99.90;;;;;;5068907;28;20021;-93
2022/07/01 04:11:08;;;;;;;2.42;2.00;;;19.10;99.90;;;;;;5059068;28;20027;-92
2022/07/01 04:13:36;;;;;;;2.78;2.30;;;19.00;99.90;;;;;;5065134;28;20025;-92
2022/07/01 04:16:02;;;;;;;2.83;2.47;;;19.00;99.90;;;;;;5069311;28;20033;-94
2022/07/01 04:18:29;;;;;;;9.90;2.55;;;19.00;99.90;;;;;;5056229;28;20025;-93
2022/07/01 04:23:38;;;;;;;3.58;2.47;;;19.00;99.90;;;;;;5060920;28;20159;-93
2022/07/01 04:26:04;;;;;;;3.80;2.25;;;19.00;99.90;;;;;;5067919;28;20116;-92
2022/07/01 04:28:30;;;;;;;3.22;2.20;;;19.00;99.90;;;;;;5073635;28;20024;-91
2022/07/01 04:30:55;;;;;;;3.00;2.28;;;19.00;99.90;;;;;;5068667;28;20032;-92
2022/07/01 04:33:21;;;;;;;2.25;1.90;;;19.00;99.90;;;;;;5058039;28;20049;-93
2022/07/01 04:35:47;;;;;;;2.78;2.05;;;19.00;99.90;;;;;;5064667;28;20396;-93
2022/07/01 04:38:12;;;;;;;2.00;1.85;;;19.00;99.90;;;;;;5064536;28;20118;-92
2022/07/01 04:40:38;;;;;;;3.10;2.20;;;19.00;99.90;;;;;;5065300;28;20399;-93
2022/07/01 04:43:03;;;;;;;2.88;2.38;;;19.10;99.90;;;;;;5059355;28;20090;-91
2022/07/01 04:45:29;;;;;;;6.22;2.10;;;19.10;99.90;;;;;;5073574;28;20036;-92
2022/07/01 04:47:55;;;;;;;2.58;1.88;;;19.10;99.90;;;;;;5073515;28;20017;-93
2022/07/01 04:50:20;;;;;;;4.20;1.92;;;19.10;99.90;;;;;;5067143;28;20021;-93
2022/07/01 04:52:46;;;;;;;3.03;1.90;;;19.10;99.90;;;;;;5065005;28;20059;-92
2022/07/01 04:55:12;;;;;;;2.55;2.25;;;19.10;99.90;;;;;;5057076;28;20480;-92
2022/07/01 04:57:37;;;;;;;2.33;1.67;;;19.10;99.90;;;;;;5070616;28;20099;-92
2022/07/01 05:00:03;;;;;;;2.50;1.90;;;19.20;99.90;;;;;;5060701;28;20052;-92
2022/07/01 05:02:29;;;;;;;2.67;1.92;;;19.20;99.90;;;;;;5060370;28;20485;-91
2022/07/01 05:04:55;;;;;;;4.20;1.98;;;19.20;99.90;;;;;;5062463;28;20033;-93
2022/07/01 05:07:29;;;;;;;2.60;1.70;;;19.20;99.90;;;;;;5062651;28;20029;-92
2022/07/01 05:09:56;;;;;;;2.28;1.80;;;19.20;99.90;;;;;;5072451;28;20082;-92
2022/07/01 05:12:22;;;;;;;2.65;1.90;;;19.20;99.90;;;;;;5060636;28;20024;-92
2022/07/01 05:14:49;;;;;;;2.15;1.70;;;19.30;99.90;;;;;;5062012;28;20433;-93
2022/07/01 05:17:15;;;;;;;1.83;1.60;;;19.30;99.90;;;;;;5068139;28;20512;-92
2022/07/01 05:22:25;;;;;;;2.60;1.80;;;19.40;99.90;;;;;;5068167;28;20035;-91
2022/07/01 05:24:51;;;;;;;1.80;1.70;;;19.40;99.90;;;;;;5066303;28;20033;-92
2022/07/01 05:27:16;;;;;;;2.83;1.63;;;19.40;99.90;;;;;;5066047;28;20163;-92
2022/07/01 05:29:42;;;;;;;2.25;1.70;;;19.40;99.90;;;;;;5069308;28;20202;-92
2022/07/01 05:32:08;;;;;;;2.28;1.70;;;19.40;99.90;;;;;;5062232;28;20557;-93
2022/07/01 05:34:35;;;;;;;3.20;1.77;;;19.40;99.90;;;;;;5067768;28;20048;-94
2022/07/01 05:37:01;;;;;;;1.60;1.50;;;19.40;99.90;;;;;;5065650;28;20621;-94
2022/07/01 05:39:27;;;;;;;2.80;1.90;;;19.40;99.90;;;;;;5053270;28;20025;-92
2022/07/01 05:41:52;;;;;;;2.00;1.67;;;19.40;99.90;;;;;;5063761;28;20028;-91
2022/07/01 05:44:18;;;;;;;2.10;2.00;;;19.30;99.90;;;;;;5055121;28;20029;-91
2022/07/01 05:46:44;;;;;;;3.40;2.00;;;19.20;99.90;;;;;;5061963;28;20091;-92
2022/07/01 05:49:10;;;;;;;2.50;2.30;;;19.20;99.90;;;;;;5071197;28;20032;-91
2022/07/01 05:51:35;;;;;;;6.07;2.50;;;19.00;99.90;;;;;;5052846;28;20086;-90
2022/07/01 05:54:01;;;;;;;3.45;2.47;;;18.80;99.90;;;;;;5064032;28;20396;-91
2022/07/01 05:56:27;;;;;;;5.50;2.63;;;18.60;99.90;;;;;;5056368;28;20496;-89
2022/07/01 05:58:54;;;;;;;8.23;3.10;;;18.40;99.90;;;;;;5055612;28;20029;-91
2022/07/01 06:01:19;;;;;;;5.57;3.83;;;18.00;99.90;;;;;;5052149;28;20504;-91
2022/07/01 06:03:45;;;;;;;4.00;3.40;;;17.90;99.90;;;;;;5059518;28;20108;-90
2022/07/01 06:06:11;;;;;;;5.13;3.80;;;17.70;99.90;;;;;;5064254;28;20496;-88
2022/07/01 06:08:36;;;;;;;4.55;4.13;;;17.60;99.90;;;;;;5069563;28;20024;-89
2022/07/01 06:11:03;;;;;;;6.22;4.22;;;17.60;99.90;;;;;;5067081;28;20033;-89
2022/07/01 06:13:29;;;;;;;5.90;4.65;;;17.50;99.90;;;;;;5068645;28;20024;-88
2022/07/01 06:15:58;;;;;;;4.85;4.45;;;17.40;99.90;;;;;;5066153;28;20385;-90
2022/07/01 06:18:24;;;;;;;6.38;4.47;;;17.40;99.90;;;;;;5069315;28;20031;-89
2022/07/01 06:20:49;;;;;;;5.85;5.25;;;17.30;99.90;;;;;;5054177;28;20021;-91
2022/07/01 06:23:15;;;;;;;5.90;5.40;;;17.20;99.90;;;;;;5061712;28;20028;-89
2022/07/01 06:25:40;;;;;;;5.22;4.82;;;17.10;99.90;;;;;;5066812;28;20033;-87
2022/07/01 06:28:06;;;;;;;7.40;6.13;;;17.00;99.90;;;;;;5059648;28;20158;-89
2022/07/01 06:30:32;;;;;;;6.72;5.60;;;16.90;99.90;;;;;;5062606;28;20120;-89
2022/07/01 06:32:58;;;;;;;5.93;5.40;;;16.90;99.90;;;;;;5059188;28;20155;-88
2022/07/01 06:35:24;;;;;;;5.57;4.97;;;16.80;99.90;;;;;;5057963;28;20146;-91
2022/07/01 06:37:50;;;;;;;5.18;4.68;;;16.80;99.90;;;;;;5056836;28;20439;-89
2022/07/01 06:40:15;;;;;;;4.50;4.20;;;16.90;99.90;;;;;;5064960;28;20055;-90
2022/07/01 06:42:41;;;;;;;4.72;4.25;;;16.90;99.90;;;;;;5062317;28;20432;-91
2022/07/01 06:45:07;;;;;;;4.85;4.55;;;16.90;99.90;;;;;;5057709;28;20021;-89
2022/07/01 06:47:33;;;;;;;5.38;4.15;;;17.00;99.90;;;;;;5057286;28;20044;-89
2022/07/01 06:49:58;;;;;;;5.72;4.50;;;16.90;99.90;;;;;;5058197;28;20033;-88
2022/07/01 06:52:25;;;;;;;4.07;3.72;;;16.90;99.90;;;;;;5064364;28;20035;-88
2022/07/01 06:54:50;;;;;;;4.32;3.50;;;16.90;99.90;;;;;;5058140;28;20028;-88
2022/07/01 06:57:16;;;;;;;3.90;3.03;;;17.00;99.90;;;;;;5066468;28;20078;-89
2022/07/01 06:59:42;;;;;;;2.97;2.78;;;17.10;99.90;;;;;;5064428;28;20024;-89
2022/07/01 07:02:07;;;;;;;2.58;2.38;;;17.10;99.90;;;;;;5057963;28;20079;-89
2022/07/01 07:04:34;;;;;;;2.90;2.42;;;17.20;99.90;;;;;;5067108;28;20112;-89
2022/07/01 07:07:00;;;;;;;3.40;2.45;;;17.20;99.90;;;;;;5062949;28;20392;-88
2022/07/01 07:09:26;;;;;;;2.92;2.40;;;17.30;99.90;;;;;;5067049;28;20024;-88
2022/07/01 07:11:52;;;;;;;4.20;2.25;;;17.40;99.90;;;;;;5067223;28;20493;-89
2022/07/01 07:14:17;;;;;;;2.90;2.70;;;17.60;99.90;;;;;;5065282;28;20107;-88
2022/07/01 07:16:43;;;;;;;2.47;2.28;;;17.70;99.90;;;;;;5066122;28;20045;-89
2022/07/01 07:19:10;;;;;;;2.72;2.53;;;17.80;99.90;;;;;;5069731;28;20025;-88
2022/07/01 07:21:35;;;;;;;2.75;2.55;;;18.00;99.90;;;;;;5064944;28;20094;-88
2022/07/01 07:24:01;;;;;;;5.05;2.50;;;18.00;99.90;;;;;;5062485;28;20103;-88
2022/07/01 07:26:26;;;;;;;2.47;1.92;;;18.00;99.90;;;;;;5062455;28;20123;-86
2022/07/01 07:28:53;;;;;;;2.10;2.00;;;18.00;99.90;;;;;;5066971;28;20033;-87
2022/07/01 07:31:19;;;;;;;2.58;2.38;;;17.90;99.90;;;;;;5061753;28;20124;-88
2022/07/01 07:33:45;;;;;;;2.70;2.50;;;17.90;99.90;;;;;;5064947;28;20032;-88
2022/07/01 07:36:10;;;;;;;2.45;2.35;;;17.90;99.90;;;;;;5066388;28;20051;-89
2022/07/01 07:38:39;;;;;;;2.63;2.35;;;17.90;99.90;;;;;;5060571;28;20036;-88
2022/07/01 07:41:05;;;;;;;2.45;2.25;;;17.90;99.90;;;;;;5065514;28;20144;-88
2022/07/01 07:43:31;;;;;;;2.90;2.60;;;17.90;99.90;;;;;;5064720;28;20162;-87
2022/07/01 07:45:56;;;;;;;2.70;2.50;;;18.00;99.90;;;;;;5061471;28;20060;-90
2022/07/01 07:48:22;;;;;;;2.40;2.20;;;18.10;99.90;;;;;;5064778;28;20441;-89
2022/07/01 07:50:48;;;;;;;2.33;2.13;;;18.20;99.90;;;;;;5072335;28;20013;-91
2022/07/01 07:53:13;;;;;;;2.00;1.90;;;18.30;99.90;;;;;;5066965;28;20032;-90
2022/07/01 07:55:40;;;;;;;2.35;2.03;;;18.30;99.90;;;;;;5062761;28;20028;-90
2022/07/01 07:58:06;;;;;;;2.40;2.20;;;18.30;99.90;;;;;;5057165;28;20032;-90
2022/07/01 08:00:32;;;;;;;3.63;2.50;;;18.40;99.90;;;;;;5062015;28;20113;-90
2022/07/01 08:02:58;;;;;;;3.70;2.00;;;18.30;99.90;;;;;;5065191;28;20029;-90
2022/07/01 08:05:23;;;;;;;2.75;2.28;;;18.30;99.90;;;;;;5064583;28;20074;-89
2022/07/01 08:07:49;;;;;;;2.33;2.10;;;18.20;99.90;;;;;;5062758;28;20555;-91
2022/07/01 08:10:15;;;;;;;2.85;2.55;;;18.20;99.90;;;;;;5064304;28;20021;-90
2022/07/01 08:12:41;;;;;;;2.40;2.20;;;18.30;99.90;;;;;;5072830;28;20027;-91
2022/07/01 08:15:08;;;;;;;5.00;2.97;;;18.40;99.90;;;;;;5064701;28;20024;-90
2022/07/01 08:17:34;;;;;;;2.40;2.30;;;18.60;99.90;;;;;;5072685;28;20036;-90
2022/07/01 08:19:59;;;;;;;2.47;2.28;;;18.90;99.90;;;;;;5063392;28;20043;-90
2022/07/01 08:22:25;;;;;;;2.60;2.40;;;19.10;99.90;;;;;;5058697;28;20025;-90
2022/07/01 08:24:51;;;;;;;3.30;3.10;;;19.30;99.90;;;;;;5067490;28;20025;-90
2022/07/01 08:27:16;;;;;;;3.72;3.42;;;19.50;99.90;;;;;;5058673;28;20116;-90
2022/07/01 08:29:42;;;;;;;3.20;3.00;;;19.60;99.90;;;;;;5067860;28;20048;-91
2022/07/01 08:32:08;;;;;;;3.92;3.70;;;19.70;99.90;;;;;;5073230;28;20021;-90
2022/07/01 08:34:35;;;;;;;3.58;3.38;;;19.90;99.90;;;;;;5066156;28;20032;-90
2022/07/01 08:37:02;;;;;;;3.00;2.80;;;20.00;99.90;;;;;;5065872;28;20018;-91
2022/07/01 08:39:28;;;;;;;3.85;3.55;;;20.20;99.90;;;;;;5065856;28;20017;-91
2022/07/01 08:41:55;;;;;;;3.47;3.28;;;20.30;99.90;;;;;;5067429;28;20012;-90
2022/07/01 08:44:21;;;;;;;4.32;4.05;;;20.10;99.90;;;;;;5065323;28;20029;-92
2022/07/01 08:46:46;;;;;;;4.70;4.30;;;20.00;99.90;;;;;;5063121;28;20505;-91
2022/07/01 08:49:13;;;;;;;5.05;4.65;;;19.80;99.90;;;;;;5059655;28;20427;-91
2022/07/01 08:51:39;;;;;;;4.50;4.20;;;19.70;99.90;;;;;;5058937;28;20545;-91
2022/07/01 08:54:04;;;;;;;4.57;4.28;;;19.40;99.90;;;;;;5062653;28;20028;-91
2022/07/01 08:56:43;;;;;;;5.15;4.70;;;19.30;99.90;;;;;;5072329;28;20028;-90
2022/07/01 08:59:10;;;;;;;4.55;4.15;;;19.00;99.90;;;;;;5063965;28;20031;-90
2022/07/01 09:01:37;;;;;;;4.75;4.35;;;18.90;99.90;;;;;;5066315;28;20043;-89
2022/07/01 09:04:29;;;;;;;6.70;4.47;;;18.70;99.90;;;;;;5061296;28;20028;-89
2022/07/01 09:07:06;;;;;;;4.50;4.18;;;18.60;99.90;;;;;;5064915;28;20020;-90
2022/07/01 09:09:37;;;;;;;4.30;4.00;;;18.50;99.90;;;;;;5058057;28;20025;-90
2022/07/01 09:12:03;;;;;;;5.15;4.47;;;18.40;99.90;;;;;;5061544;28;20045;-90
2022/07/01 09:14:30;;;;;;;7.40;4.47;;;18.30;99.90;;;;;;5066298;28;20029;-90
2022/07/01 09:17:01;;;;;;;7.20;4.40;;;18.30;99.90;;;;;;5063246;28;20078;-90
2022/07/01 09:19:30;;;;;;;4.30;4.00;;;18.20;99.90;;;;;;5060474;28;20578;-91
2022/07/01 09:21:58;;;;;;;4.10;3.83;;;18.20;99.90;;;;;;5068967;28;20025;-90
2022/07/01 09:24:35;;;;;;;4.75;4.35;;;18.20;99.90;;;;;;5065298;28;20100;-89
2022/07/01 09:27:09;;;;;;;6.63;4.28;;;18.20;99.90;;;;;;5053202;28;20041;-88
2022/07/01 09:29:55;;;;;;;5.05;4.65;;;18.20;99.90;;;;;;5062420;28;20033;-90
2022/07/01 09:32:22;;;;;;;5.07;4.68;;;18.30;99.90;;;;;;5059745;28;20032;-88
2022/07/01 09:34:50;;;;;;;4.50;4.20;;;18.30;99.90;;;;;;5059818;28;20037;-89
2022/07/01 09:37:18;;;;;;;4.70;4.40;;;18.30;99.90;;;;;;5063163;28;20071;-88
2022/07/01 09:39:45;;;;;;;5.25;4.85;;;18.20;99.90;;;;;;5062727;28;20094;-88
2022/07/01 09:42:11;;;;;;;5.35;4.85;;;18.10;99.90;;;;;;5064723;28;20021;-90
2022/07/01 09:44:54;;;;;;;4.78;4.47;;;18.00;99.90;;;;;;5060986;28;20055;-89
2022/07/01 09:47:25;;;;;;;6.50;6.00;;;18.00;99.90;;;;;;5065260;28;20033;-90
2022/07/01 09:49:52;;;;;;;5.50;5.00;;;18.00;99.90;;;;;;5059837;28;20020;-91
2022/07/01 09:52:18;;;;;;;5.22;4.82;;;18.10;99.90;;;;;;5069859;28;20054;-89
2022/07/01 09:54:47;;;;;;;6.03;5.22;;;18.20;99.90;;;;;;5062531;28;20112;-90
2022/07/01 09:57:17;;;;;;;5.65;5.25;;;18.30;99.90;;;;;;5069282;28;20040;-89
2022/07/01 09:59:42;;;;;;;5.30;4.90;;;18.40;99.90;;;;;;5049783;28;20052;-89
2022/07/01 10:02:09;;;;;;;5.35;4.95;;;18.50;99.90;;;;;;5045125;28;20112;-89
2022/07/01 10:04:46;;;;;;;5.13;4.72;;;18.50;99.90;;;;;;5040244;28;20025;-88
2022/07/01 10:07:20;;;;;;;4.93;4.55;;;18.50;99.90;;;;;;5041403;28;20037;-90
2022/07/01 10:10:16;;;;;;;20.48;5.93;;;18.40;99.90;;;;;;5039923;28;20029;-89
2022/07/01 10:12:54;;;;;;;5.90;5.40;;;18.30;99.90;;;;;;5030434;28;20029;-90
2022/07/01 10:15:20;;;;;;;6.00;5.40;;;18.30;99.90;;;;;;5041007;28;20264;-89
2022/07/01 10:17:50;;;;;;;6.28;5.82;;;18.20;99.90;;;;;;5045920;28;20104;-88
2022/07/01 10:20:18;;;;;;;6.32;5.82;;;18.20;99.90;;;;;;5043200;28;20040;-89
2022/07/01 10:22:45;;;;;;;6.53;6.10;;;18.20;99.90;;;;;;5047084;28;20029;-89
2022/07/01 10:25:53;;;;;;;6.55;6.13;;;18.10;99.90;;;;;;5049333;28;20059;-88
2022/07/01 10:28:23;;;;;;;6.13;5.57;;;18.00;99.90;;;;;;5019825;28;20118;-90
2022/07/01 10:31:04;;;;;;;7.00;6.50;;;18.00;99.90;;;;;;5042099;28;20439;-90
2022/07/01 10:33:49;;;;;;;6.38;5.88;;;17.80;99.90;;;;;;5048666;28;20048;-89
2022/07/01 10:36:32;;;;;;;5.72;5.32;;;17.90;99.90;;;;;;5062016;28;20032;-91
2022/07/01 10:41:32;;;;;;;6.28;5.78;;;18.10;99.90;;;;;;5041218;28;20036;-87
2022/07/01 10:44:00;;;;;;;7.15;6.45;;;18.10;99.90;;;;;;5042746;28;20040;-88
2022/07/01 10:46:44;;;;;;;7.65;6.07;;;18.20;99.90;;;;;;5054968;28;20036;-89
2022/07/01 10:49:20;;;;;;;6.20;5.78;;;18.10;99.90;;;;;;5058239;28;20024;-89
2022/07/01 10:51:57;;;;;;;6.32;5.82;;;18.00;99.90;;;;;;5062825;28;20028;-89
2022/07/01 10:54:45;;;;;;;6.72;6.13;;;17.90;99.90;;;;;;5057548;28;20044;-89
2022/07/01 10:57:19;;;;;;;5.60;5.20;;;17.90;99.90;;;;;;5059526;28;20029;-89
2022/07/01 10:59:59;;;;;;;5.80;5.40;;;18.20;99.90;;;;;;5069901;28;20128;-90
2022/07/01 11:02:28;;;;;;;6.32;5.55;;;18.40;99.90;;;;;;5089744;28;20406;-87
2022/07/01 11:04:56;;;;;;;5.15;4.75;;;18.60;99.90;;;;;;5057704;28;20381;-88
2022/07/01 11:07:26;;;;;;;5.68;5.28;;;18.90;99.90;;;;;;5060162;28;20441;-88
2022/07/01 11:09:51;;;;;;;5.53;5.13;;;19.10;99.90;;;;;;5059660;28;20024;-88
2022/07/01 11:12:17;;;;;;;5.93;5.53;;;19.20;99.90;;;;;;5061633;28;20037;-86
2022/07/01 11:14:43;;;;;;;5.60;5.10;;;19.30;99.90;;;;;;5060677;28;20031;-91
2022/07/01 11:17:10;;;;;;;5.80;5.32;;;19.50;99.90;;;;;;5069814;28;20530;-88
2022/07/01 11:19:36;;;;;;;5.90;5.40;;;19.50;99.90;;;;;;5058853;28;20052;-89
2022/07/01 11:22:02;;;;;;;6.40;5.90;;;19.40;99.90;;;;;;5064780;28;20017;-89
2022/07/01 11:24:29;;;;;;;5.88;5.38;;;19.20;99.90;;;;;;5061901;28;20492;-90
2022/07/01 11:27:07;;;;;;;5.95;5.50;;;19.20;99.90;;;;;;5059320;28;20036;-88
2022/07/01 11:29:33;;;;;;;6.45;5.88;;;19.10;99.90;;;;;;5055377;28;20030;-88
2022/07/01 11:31:59;;;;;;;5.95;5.55;;;18.90;99.90;;;;;;5059430;28;20099;-88
2022/07/01 11:34:28;;;;;;;5.40;5.00;;;18.90;99.90;;;;;;5059510;28;20741;-88
2022/07/01 11:39:41;;;;;;;5.22;4.72;;;18.80;99.90;;;;;;5061434;28;20117;-88
2022/07/01 11:42:09;;;;;;;5.65;5.15;;;18.80;99.90;;;;;;5054254;28;20397;-89
2022/07/01 11:44:43;;;;;;;4.47;4.05;;;18.70;99.90;;;;;;5059996;28;20041;-89
2022/07/01 11:47:13;;;;;;;4.68;4.28;;;18.50;99.90;;;;;;5060022;28;20033;-89
2022/07/01 11:49:46;;;;;;;4.57;4.15;;;18.50;99.90;;;;;;5063355;28;20036;-89
2022/07/01 11:52:12;;;;;;;4.45;4.05;;;18.50;99.90;;;;;;5065637;28;20087;-88
2022/07/01 11:54:39;;;;;;;4.13;3.75;;;18.60;99.90;;;;;;5058547;28;20024;-90
2022/07/01 11:57:14;;;;;;;4.35;3.95;;;18.60;99.90;;;;;;5071612;28;20480;-89
2022/07/01 11:59:40;;;;;;;3.90;3.50;;;18.70;99.90;;;;;;5073361;28;20518;-89
2022/07/01 12:02:08;;;;;;;4.00;3.47;;;18.70;99.90;;;;;;5073260;28;20047;-90
2022/07/01 12:04:34;;;;;;;3.33;3.03;;;18.70;99.90;;;;;;5061729;28;20041;-89
2022/07/01 12:07:00;;;;;;;3.72;3.42;;;18.70;99.90;;;;;;5063459;28;20040;-90
2022/07/01 12:09:27;;;;;;;3.45;3.00;;;18.60;99.90;;;;;;5058053;28;20048;-90
2022/07/01 12:11:53;;;;;;;3.03;2.72;;;18.60;99.90;;;;;;5064792;28;20025;-91
2022/07/01 12:14:21;;;;;;;3.42;3.13;;;18.60;99.90;;;;;;5066757;28;20108;-91
2022/07/01 12:16:47;;;;;;;3.38;3.08;;;18.70;99.90;;;;;;5061363;28;20043;-90
2022/07/01 12:19:13;;;;;;;6.75;2.85;;;18.70;99.90;;;;;;5071969;28;20029;-90
2022/07/01 12:22:09;;;;;;;4.05;2.70;;;18.50;99.90;;;;;;5065196;28;20037;-90
2022/07/01 12:24:35;;;;;;;2.75;2.50;;;18.40;99.90;;;;;;5064223;28;20017;-90
2022/07/01 12:27:04;;;;;;;3.28;2.70;;;18.30;99.90;;;;;;5063033;28;20472;-90
2022/07/01 12:29:46;;;;;;;2.75;2.55;;;18.10;99.90;;;;;;5059278;28;20496;-89
2022/07/01 12:32:17;;;;;;;3.58;2.33;;;18.10;99.90;;;;;;5064187;28;20029;-90
2022/07/01 12:34:48;;;;;;;;;;;18.00;99.90;;;;;;5067060;28;20039;-90
2022/07/01 12:37:17;;;;;;;3.28;2.58;;;17.90;99.90;;;;;;5063091;28;19912;-89
2022/07/01 12:39:48;;;;;;;3.10;2.50;;;17.90;99.90;;;;;;5071418;28;20039;-89
2022/07/01 12:42:33;;;;;;;2.97;2.63;;;18.00;99.90;;;;;;5063196;28;20120;-90
2022/07/01 12:45:05;;;;;;;4.63;2.33;;;18.00;99.90;;;;;;5070430;28;20025;-89
2022/07/01 12:47:36;;;;;;;3.08;2.42;;;18.10;99.90;;;;;;5062730;28;20036;-90
2022/07/01 12:50:21;;;;;;;;;;;18.10;99.90;;;;;;5062591;28;20431;-89
2022/07/01 12:53:07;;;;;;;3.03;2.33;;;18.10;99.90;;;;;;5062416;28;19958;-89
2022/07/01 12:55:38;;;;;;;2.63;2.35;;;18.30;99.90;;;;;;5057286;28;20064;-89
2022/07/01 12:58:06;;;;;;;2.45;2.25;;;18.40;99.90;;;;;;5066945;28;20032;-89
2022/07/01 13:00:32;;;;;;;2.47;2.28;;;18.30;99.90;;;;;;5059878;28;20021;-90
2022/07/01 13:03:01;;;;;;;2.03;1.92;;;18.20;99.90;;;;;;5072715;28;20025;-89
2022/07/01 13:05:32;;;;;;;2.30;2.13;;;18.20;99.90;;;;;;5063888;28;20028;-89